sensor_id;sensor_type;location;lat;lon;timestamp;P1;durP1;ratioP1;P2;durP2;ratioP2
4575;SDS011;2300;51.874;8.430;2023-02-28T00:01:24;24.60;;;22.80;;
4575;SDS011;2300;51.874;8.430;2023-02-28T00:03:50;27.23;;;25.20;;
4575;SDS011;2300;51.874;8.430;2023-02-28T00:06:17;27.33;;;25.27;;
4575;SDS011;2300;51.874;8.430;2023-02-28T00:08:45;27.50;;;25.53;;
4575;SDS011;2300;51.874;8.430;2023-02-28T00:11:14;27.10;;;25.10;;
4575;SDS011;2300;51.874;8.430;2023-02-28T00:13:42;28.10;;;25.60;;
4575;SDS011;2300;51.874;8.430;2023-02-28T00:16:12;26.63;;;24.37;;
4575;SDS011;2300;51.874;8.430;2023-02-28T00:18:40;25.90;;;24.10;;
4575;SDS011;2300;51.874;8.430;2023-02-28T00:21:07;26.87;;;24.87;;
4575;SDS011;2300;51.874;8.430;2023-02-28T00:23:34;25.63;;;23.93;;
4575;SDS011;2300;51.874;8.430;2023-02-28T00:26:01;25.47;;;23.77;;
4575;SDS011;2300;51.874;8.430;2023-02-28T00:28:29;25.47;;;23.77;;
4575;SDS011;2300;51.874;8.430;2023-02-28T00:30:56;23.33;;;21.83;;
4575;SDS011;2300;51.874;8.430;2023-02-28T00:33:24;24.17;;;22.50;;
4575;SDS011;2300;51.874;8.430;2023-02-28T00:35:51;24.20;;;22.60;;
4575;SDS011;2300;51.874;8.430;2023-02-28T00:38:18;24.07;;;22.60;;
4575;SDS011;2300;51.874;8.430;2023-02-28T00:40:44;24.40;;;22.60;;
4575;SDS011;2300;51.874;8.430;2023-02-28T00:43:10;24.57;;;22.73;;
4575;SDS011;2300;51.874;8.430;2023-02-28T00:45:38;24.93;;;23.20;;
4575;SDS011;2300;51.874;8.430;2023-02-28T00:48:05;23.97;;;22.43;;
4575;SDS011;2300;51.874;8.430;2023-02-28T00:50:32;24.43;;;22.90;;
4575;SDS011;2300;51.874;8.430;2023-02-28T00:52:58;24.67;;;22.87;;
4575;SDS011;2300;51.874;8.430;2023-02-28T00:55:24;25.30;;;23.20;;
4575;SDS011;2300;51.874;8.430;2023-02-28T00:57:51;25.07;;;22.93;;
4575;SDS011;2300;51.874;8.430;2023-02-28T01:00:17;25.03;;;22.97;;
4575;SDS011;2300;51.874;8.430;2023-02-28T01:02:46;24.73;;;23.00;;
4575;SDS011;2300;51.874;8.430;2023-02-28T01:05:12;23.67;;;22.17;;
4575;SDS011;2300;51.874;8.430;2023-02-28T01:07:39;23.63;;;22.07;;
4575;SDS011;2300;51.874;8.430;2023-02-28T01:10:06;24.53;;;23.03;;
4575;SDS011;2300;51.874;8.430;2023-02-28T01:12:33;24.53;;;22.93;;
4575;SDS011;2300;51.874;8.430;2023-02-28T01:14:59;24.77;;;23.03;;
4575;SDS011;2300;51.874;8.430;2023-02-28T01:17:25;24.90;;;23.30;;
4575;SDS011;2300;51.874;8.430;2023-02-28T01:19:54;23.70;;;22.13;;
4575;SDS011;2300;51.874;8.430;2023-02-28T01:22:21;24.43;;;22.83;;
4575;SDS011;2300;51.874;8.430;2023-02-28T01:24:47;24.70;;;22.97;;
4575;SDS011;2300;51.874;8.430;2023-02-28T01:27:14;24.17;;;22.57;;
4575;SDS011;2300;51.874;8.430;2023-02-28T01:29:40;25.10;;;23.37;;
4575;SDS011;2300;51.874;8.430;2023-02-28T01:32:07;24.20;;;22.60;;
4575;SDS011;2300;51.874;8.430;2023-02-28T01:34:33;25.23;;;23.57;;
4575;SDS011;2300;51.874;8.430;2023-02-28T01:37:01;23.57;;;21.77;;
4575;SDS011;2300;51.874;8.430;2023-02-28T01:39:28;25.47;;;23.70;;
4575;SDS011;2300;51.874;8.430;2023-02-28T01:41:55;24.47;;;22.87;;
4575;SDS011;2300;51.874;8.430;2023-02-28T01:47:32;26.03;;;24.40;;
4575;SDS011;2300;51.874;8.430;2023-02-28T01:50:03;26.00;;;24.07;;
4575;SDS011;2300;51.874;8.430;2023-02-28T01:52:34;24.90;;;23.20;;
4575;SDS011;2300;51.874;8.430;2023-02-28T01:55:02;24.37;;;22.47;;
4575;SDS011;2300;51.874;8.430;2023-02-28T01:57:34;27.13;;;25.10;;
4575;SDS011;2300;51.874;8.430;2023-02-28T02:00:05;27.03;;;24.67;;
4575;SDS011;2300;51.874;8.430;2023-02-28T02:02:35;27.13;;;25.17;;
4575;SDS011;2300;51.874;8.430;2023-02-28T02:05:04;26.57;;;24.97;;
4575;SDS011;2300;51.874;8.430;2023-02-28T02:07:35;26.03;;;24.20;;
4575;SDS011;2300;51.874;8.430;2023-02-28T02:10:04;26.10;;;24.30;;
4575;SDS011;2300;51.874;8.430;2023-02-28T02:12:41;26.27;;;24.50;;
4575;SDS011;2300;51.874;8.430;2023-02-28T02:15:19;24.93;;;23.10;;
4575;SDS011;2300;51.874;8.430;2023-02-28T02:17:52;26.03;;;24.33;;
4575;SDS011;2300;51.874;8.430;2023-02-28T02:20:30;26.20;;;24.23;;
4575;SDS011;2300;51.874;8.430;2023-02-28T02:23:32;24.67;;;22.97;;
4575;SDS011;2300;51.874;8.430;2023-02-28T02:26:27;23.60;;;22.00;;
4575;SDS011;2300;51.874;8.430;2023-02-28T02:29:16;23.57;;;21.87;;
4575;SDS011;2300;51.874;8.430;2023-02-28T02:32:04;24.13;;;22.47;;
4575;SDS011;2300;51.874;8.430;2023-02-28T02:34:43;25.30;;;23.23;;
4575;SDS011;2300;51.874;8.430;2023-02-28T02:37:21;22.83;;;21.13;;
4575;SDS011;2300;51.874;8.430;2023-02-28T02:39:58;23.63;;;22.13;;
4575;SDS011;2300;51.874;8.430;2023-02-28T02:42:31;24.10;;;22.40;;
4575;SDS011;2300;51.874;8.430;2023-02-28T02:45:05;24.13;;;22.50;;
4575;SDS011;2300;51.874;8.430;2023-02-28T02:47:35;24.00;;;22.27;;
4575;SDS011;2300;51.874;8.430;2023-02-28T02:50:05;24.63;;;22.73;;
4575;SDS011;2300;51.874;8.430;2023-02-28T02:52:38;24.13;;;22.53;;
4575;SDS011;2300;51.874;8.430;2023-02-28T02:55:08;24.60;;;22.83;;
4575;SDS011;2300;51.874;8.430;2023-02-28T02:57:40;22.70;;;21.27;;
4575;SDS011;2300;51.874;8.430;2023-02-28T03:00:12;23.73;;;22.17;;
4575;SDS011;2300;51.874;8.430;2023-02-28T03:02:41;24.17;;;21.77;;
4575;SDS011;2300;51.874;8.430;2023-02-28T03:05:14;24.97;;;23.03;;
4575;SDS011;2300;51.874;8.430;2023-02-28T03:07:45;23.73;;;22.23;;
4575;SDS011;2300;51.874;8.430;2023-02-28T03:10:28;25.03;;;23.20;;
4575;SDS011;2300;51.874;8.430;2023-02-28T03:16:32;23.83;;;22.20;;
4575;SDS011;2300;51.874;8.430;2023-02-28T03:19:03;24.50;;;22.87;;
4575;SDS011;2300;51.874;8.430;2023-02-28T03:21:54;24.67;;;22.93;;
4575;SDS011;2300;51.874;8.430;2023-02-28T03:24:31;23.83;;;22.20;;
4575;SDS011;2300;51.874;8.430;2023-02-28T03:27:07;23.47;;;21.97;;
4575;SDS011;2300;51.874;8.430;2023-02-28T03:29:38;22.93;;;21.43;;
4575;SDS011;2300;51.874;8.430;2023-02-28T03:32:10;23.60;;;22.00;;
4575;SDS011;2300;51.874;8.430;2023-02-28T03:34:47;24.20;;;22.63;;
4575;SDS011;2300;51.874;8.430;2023-02-28T03:37:19;23.67;;;21.87;;
4575;SDS011;2300;51.874;8.430;2023-02-28T03:39:51;28.83;;;26.43;;
4575;SDS011;2300;51.874;8.430;2023-02-28T03:42:23;26.67;;;24.57;;
4575;SDS011;2300;51.874;8.430;2023-02-28T03:44:53;25.00;;;22.87;;
4575;SDS011;2300;51.874;8.430;2023-02-28T03:47:23;26.00;;;24.13;;
4575;SDS011;2300;51.874;8.430;2023-02-28T03:49:53;25.87;;;24.00;;
4575;SDS011;2300;51.874;8.430;2023-02-28T03:52:27;24.20;;;22.40;;
4575;SDS011;2300;51.874;8.430;2023-02-28T03:54:58;25.03;;;23.33;;
4575;SDS011;2300;51.874;8.430;2023-02-28T03:57:32;24.70;;;22.97;;
4575;SDS011;2300;51.874;8.430;2023-02-28T04:00:04;24.10;;;22.20;;
4575;SDS011;2300;51.874;8.430;2023-02-28T04:02:34;24.97;;;23.27;;
4575;SDS011;2300;51.874;8.430;2023-02-28T04:05:01;23.73;;;22.23;;
4575;SDS011;2300;51.874;8.430;2023-02-28T04:07:30;23.60;;;22.13;;
4575;SDS011;2300;51.874;8.430;2023-02-28T04:09:56;24.87;;;23.27;;
4575;SDS011;2300;51.874;8.430;2023-02-28T04:12:23;23.93;;;22.20;;
4575;SDS011;2300;51.874;8.430;2023-02-28T04:14:50;24.63;;;23.13;;
4575;SDS011;2300;51.874;8.430;2023-02-28T04:17:17;23.63;;;21.87;;
4575;SDS011;2300;51.874;8.430;2023-02-28T04:19:44;24.10;;;22.57;;
4575;SDS011;2300;51.874;8.430;2023-02-28T04:22:10;25.40;;;23.77;;
4575;SDS011;2300;51.874;8.430;2023-02-28T04:24:38;24.43;;;22.87;;
4575;SDS011;2300;51.874;8.430;2023-02-28T04:27:06;25.73;;;24.07;;
4575;SDS011;2300;51.874;8.430;2023-02-28T04:29:33;26.23;;;24.07;;
4575;SDS011;2300;51.874;8.430;2023-02-28T04:32:00;25.20;;;23.50;;
4575;SDS011;2300;51.874;8.430;2023-02-28T04:34:27;25.60;;;23.80;;
4575;SDS011;2300;51.874;8.430;2023-02-28T04:36:55;23.43;;;21.93;;
4575;SDS011;2300;51.874;8.430;2023-02-28T04:39:22;24.53;;;22.67;;
4575;SDS011;2300;51.874;8.430;2023-02-28T04:41:51;24.10;;;22.67;;
4575;SDS011;2300;51.874;8.430;2023-02-28T04:44:17;24.93;;;23.20;;
4575;SDS011;2300;51.874;8.430;2023-02-28T04:46:47;24.03;;;22.50;;
4575;SDS011;2300;51.874;8.430;2023-02-28T04:49:15;23.17;;;21.63;;
4575;SDS011;2300;51.874;8.430;2023-02-28T04:51:41;24.80;;;23.23;;
4575;SDS011;2300;51.874;8.430;2023-02-28T04:54:08;24.73;;;22.97;;
4575;SDS011;2300;51.874;8.430;2023-02-28T04:56:35;24.50;;;22.80;;
4575;SDS011;2300;51.874;8.430;2023-02-28T04:59:02;24.33;;;22.87;;
4575;SDS011;2300;51.874;8.430;2023-02-28T05:01:30;22.50;;;21.17;;
4575;SDS011;2300;51.874;8.430;2023-02-28T05:03:59;23.13;;;21.73;;
4575;SDS011;2300;51.874;8.430;2023-02-28T05:06:28;23.13;;;21.60;;
4575;SDS011;2300;51.874;8.430;2023-02-28T05:08:56;23.63;;;21.93;;
4575;SDS011;2300;51.874;8.430;2023-02-28T05:11:23;24.93;;;23.23;;
4575;SDS011;2300;51.874;8.430;2023-02-28T05:13:52;24.43;;;22.90;;
4575;SDS011;2300;51.874;8.430;2023-02-28T05:16:21;23.93;;;22.33;;
4575;SDS011;2300;51.874;8.430;2023-02-28T05:18:47;25.13;;;23.33;;
4575;SDS011;2300;51.874;8.430;2023-02-28T05:21:21;25.20;;;23.43;;
4575;SDS011;2300;51.874;8.430;2023-02-28T05:23:50;24.50;;;22.97;;
4575;SDS011;2300;51.874;8.430;2023-02-28T05:26:17;24.03;;;22.23;;
4575;SDS011;2300;51.874;8.430;2023-02-28T05:28:44;25.87;;;23.90;;
4575;SDS011;2300;51.874;8.430;2023-02-28T05:31:10;25.47;;;23.50;;
4575;SDS011;2300;51.874;8.430;2023-02-28T05:33:38;25.13;;;23.23;;
4575;SDS011;2300;51.874;8.430;2023-02-28T05:36:06;24.77;;;22.97;;
4575;SDS011;2300;51.874;8.430;2023-02-28T05:38:33;25.70;;;23.63;;
4575;SDS011;2300;51.874;8.430;2023-02-28T05:40:59;25.57;;;23.13;;
4575;SDS011;2300;51.874;8.430;2023-02-28T05:43:26;26.00;;;24.00;;
4575;SDS011;2300;51.874;8.430;2023-02-28T05:45:52;25.87;;;24.03;;
4575;SDS011;2300;51.874;8.430;2023-02-28T05:48:19;23.67;;;21.90;;
4575;SDS011;2300;51.874;8.430;2023-02-28T05:50:47;24.07;;;22.47;;
4575;SDS011;2300;51.874;8.430;2023-02-28T05:53:13;23.97;;;22.37;;
4575;SDS011;2300;51.874;8.430;2023-02-28T05:55:40;25.33;;;23.63;;
4575;SDS011;2300;51.874;8.430;2023-02-28T05:58:07;25.43;;;23.53;;
4575;SDS011;2300;51.874;8.430;2023-02-28T06:00:33;24.63;;;22.40;;
4575;SDS011;2300;51.874;8.430;2023-02-28T06:02:59;25.47;;;23.60;;
4575;SDS011;2300;51.874;8.430;2023-02-28T06:05:27;24.87;;;23.17;;
4575;SDS011;2300;51.874;8.430;2023-02-28T06:07:55;24.60;;;22.70;;
4575;SDS011;2300;51.874;8.430;2023-02-28T06:10:21;23.93;;;22.33;;
4575;SDS011;2300;51.874;8.430;2023-02-28T06:12:48;24.60;;;23.10;;
4575;SDS011;2300;51.874;8.430;2023-02-28T06:15:14;25.00;;;22.97;;
4575;SDS011;2300;51.874;8.430;2023-02-28T06:17:42;24.33;;;22.83;;
4575;SDS011;2300;51.874;8.430;2023-02-28T06:20:10;23.53;;;22.03;;
4575;SDS011;2300;51.874;8.430;2023-02-28T06:22:38;24.57;;;22.97;;
4575;SDS011;2300;51.874;8.430;2023-02-28T06:25:06;24.33;;;22.70;;
4575;SDS011;2300;51.874;8.430;2023-02-28T06:27:33;24.83;;;23.13;;
4575;SDS011;2300;51.874;8.430;2023-02-28T06:30:00;25.17;;;23.47;;
4575;SDS011;2300;51.874;8.430;2023-02-28T06:32:26;24.70;;;23.10;;
4575;SDS011;2300;51.874;8.430;2023-02-28T06:34:53;25.57;;;23.47;;
4575;SDS011;2300;51.874;8.430;2023-02-28T06:37:19;24.40;;;22.67;;
4575;SDS011;2300;51.874;8.430;2023-02-28T06:39:46;23.07;;;21.43;;
4575;SDS011;2300;51.874;8.430;2023-02-28T06:42:14;23.30;;;21.70;;
4575;SDS011;2300;51.874;8.430;2023-02-28T06:44:40;24.13;;;22.63;;
4575;SDS011;2300;51.874;8.430;2023-02-28T06:47:08;25.07;;;23.47;;
4575;SDS011;2300;51.874;8.430;2023-02-28T06:49:34;22.50;;;21.10;;
4575;SDS011;2300;51.874;8.430;2023-02-28T06:52:02;25.17;;;23.27;;
4575;SDS011;2300;51.874;8.430;2023-02-28T06:54:28;23.07;;;21.37;;
4575;SDS011;2300;51.874;8.430;2023-02-28T06:56:55;25.27;;;23.63;;
4575;SDS011;2300;51.874;8.430;2023-02-28T06:59:24;26.67;;;24.47;;
4575;SDS011;2300;51.874;8.430;2023-02-28T07:01:51;26.63;;;24.60;;
4575;SDS011;2300;51.874;8.430;2023-02-28T07:04:17;27.93;;;25.43;;
4575;SDS011;2300;51.874;8.430;2023-02-28T07:06:44;27.20;;;24.83;;
4575;SDS011;2300;51.874;8.430;2023-02-28T07:09:10;27.63;;;24.73;;
4575;SDS011;2300;51.874;8.430;2023-02-28T07:11:37;26.83;;;24.70;;
4575;SDS011;2300;51.874;8.430;2023-02-28T07:14:03;25.80;;;23.47;;
4575;SDS011;2300;51.874;8.430;2023-02-28T07:16:31;26.63;;;24.43;;
4575;SDS011;2300;51.874;8.430;2023-02-28T07:18:57;26.10;;;23.97;;
4575;SDS011;2300;51.874;8.430;2023-02-28T07:21:24;25.50;;;23.60;;
4575;SDS011;2300;51.874;8.430;2023-02-28T07:23:51;26.30;;;24.40;;
4575;SDS011;2300;51.874;8.430;2023-02-28T07:26:18;25.47;;;23.67;;
4575;SDS011;2300;51.874;8.430;2023-02-28T07:28:45;23.90;;;22.30;;
4575;SDS011;2300;51.874;8.430;2023-02-28T07:31:13;23.57;;;21.97;;
4575;SDS011;2300;51.874;8.430;2023-02-28T07:33:41;23.60;;;22.10;;
4575;SDS011;2300;51.874;8.430;2023-02-28T07:36:09;22.97;;;21.37;;
4575;SDS011;2300;51.874;8.430;2023-02-28T07:38:40;22.00;;;20.60;;
4575;SDS011;2300;51.874;8.430;2023-02-28T07:41:07;21.93;;;20.53;;
4575;SDS011;2300;51.874;8.430;2023-02-28T07:43:33;24.17;;;22.27;;
4575;SDS011;2300;51.874;8.430;2023-02-28T07:46:01;22.93;;;21.40;;
4575;SDS011;2300;51.874;8.430;2023-02-28T07:48:29;22.50;;;21.10;;
4575;SDS011;2300;51.874;8.430;2023-02-28T07:50:57;23.00;;;21.50;;
4575;SDS011;2300;51.874;8.430;2023-02-28T07:53:24;22.90;;;21.40;;
4575;SDS011;2300;51.874;8.430;2023-02-28T07:55:50;21.63;;;20.13;;
4575;SDS011;2300;51.874;8.430;2023-02-28T07:58:18;22.60;;;21.07;;
4575;SDS011;2300;51.874;8.430;2023-02-28T08:00:44;22.93;;;21.37;;
4575;SDS011;2300;51.874;8.430;2023-02-28T08:03:10;22.33;;;20.93;;
4575;SDS011;2300;51.874;8.430;2023-02-28T08:05:38;22.63;;;21.30;;
4575;SDS011;2300;51.874;8.430;2023-02-28T08:08:06;22.30;;;20.83;;
4575;SDS011;2300;51.874;8.430;2023-02-28T08:10:33;22.13;;;20.50;;
4575;SDS011;2300;51.874;8.430;2023-02-28T08:13:00;20.77;;;19.57;;
4575;SDS011;2300;51.874;8.430;2023-02-28T08:15:27;21.00;;;19.70;;
4575;SDS011;2300;51.874;8.430;2023-02-28T08:17:53;21.73;;;20.57;;
4575;SDS011;2300;51.874;8.430;2023-02-28T08:20:21;21.47;;;20.17;;
4575;SDS011;2300;51.874;8.430;2023-02-28T08:22:47;20.50;;;19.40;;
4575;SDS011;2300;51.874;8.430;2023-02-28T08:25:15;20.03;;;18.70;;
4575;SDS011;2300;51.874;8.430;2023-02-28T08:27:42;20.50;;;19.30;;
4575;SDS011;2300;51.874;8.430;2023-02-28T08:30:09;20.67;;;19.40;;
4575;SDS011;2300;51.874;8.430;2023-02-28T08:32:36;19.40;;;18.20;;
4575;SDS011;2300;51.874;8.430;2023-02-28T08:35:03;20.27;;;18.97;;
4575;SDS011;2300;51.874;8.430;2023-02-28T08:37:30;20.37;;;19.20;;
4575;SDS011;2300;51.874;8.430;2023-02-28T08:39:56;21.00;;;19.40;;
4575;SDS011;2300;51.874;8.430;2023-02-28T08:42:24;19.90;;;18.70;;
4575;SDS011;2300;51.874;8.430;2023-02-28T08:44:51;20.63;;;19.43;;
4575;SDS011;2300;51.874;8.430;2023-02-28T08:47:17;21.13;;;19.83;;
4575;SDS011;2300;51.874;8.430;2023-02-28T08:49:44;21.40;;;20.10;;
4575;SDS011;2300;51.874;8.430;2023-02-28T08:52:10;20.97;;;19.70;;
4575;SDS011;2300;51.874;8.430;2023-02-28T08:54:36;20.00;;;18.60;;
4575;SDS011;2300;51.874;8.430;2023-02-28T08:57:03;19.93;;;18.70;;
4575;SDS011;2300;51.874;8.430;2023-02-28T08:59:31;20.50;;;19.30;;
4575;SDS011;2300;51.874;8.430;2023-02-28T09:01:57;18.77;;;17.57;;
4575;SDS011;2300;51.874;8.430;2023-02-28T09:04:24;19.57;;;18.47;;
4575;SDS011;2300;51.874;8.430;2023-02-28T09:06:50;19.30;;;18.03;;
4575;SDS011;2300;51.874;8.430;2023-02-28T09:09:17;19.87;;;18.57;;
4575;SDS011;2300;51.874;8.430;2023-02-28T09:11:43;18.03;;;17.00;;
4575;SDS011;2300;51.874;8.430;2023-02-28T09:14:09;18.23;;;17.13;;
4575;SDS011;2300;51.874;8.430;2023-02-28T09:16:37;18.23;;;17.03;;
4575;SDS011;2300;51.874;8.430;2023-02-28T09:19:04;17.53;;;16.33;;
4575;SDS011;2300;51.874;8.430;2023-02-28T09:21:30;17.47;;;16.47;;
4575;SDS011;2300;51.874;8.430;2023-02-28T09:23:57;17.17;;;15.97;;
4575;SDS011;2300;51.874;8.430;2023-02-28T09:26:24;16.43;;;15.33;;
4575;SDS011;2300;51.874;8.430;2023-02-28T09:28:52;16.27;;;15.27;;
4575;SDS011;2300;51.874;8.430;2023-02-28T09:31:20;16.50;;;15.47;;
4575;SDS011;2300;51.874;8.430;2023-02-28T09:33:50;16.43;;;15.37;;
4575;SDS011;2300;51.874;8.430;2023-02-28T09:36:18;16.53;;;15.50;;
4575;SDS011;2300;51.874;8.430;2023-02-28T09:38:45;15.00;;;14.10;;
4575;SDS011;2300;51.874;8.430;2023-02-28T09:41:12;15.13;;;14.10;;
4575;SDS011;2300;51.874;8.430;2023-02-28T09:43:41;16.53;;;15.53;;
4575;SDS011;2300;51.874;8.430;2023-02-28T09:46:14;15.53;;;14.53;;
4575;SDS011;2300;51.874;8.430;2023-02-28T09:48:54;16.50;;;15.30;;
4575;SDS011;2300;51.874;8.430;2023-02-28T09:51:27;17.03;;;15.83;;
4575;SDS011;2300;51.874;8.430;2023-02-28T09:53:59;15.67;;;14.53;;
4575;SDS011;2300;51.874;8.430;2023-02-28T09:56:27;15.33;;;14.43;;
4575;SDS011;2300;51.874;8.430;2023-02-28T09:58:58;15.33;;;14.37;;
4575;SDS011;2300;51.874;8.430;2023-02-28T10:01:31;16.50;;;15.43;;
4575;SDS011;2300;51.874;8.430;2023-02-28T10:04:05;16.57;;;15.37;;
4575;SDS011;2300;51.874;8.430;2023-02-28T10:06:39;15.30;;;14.40;;
4575;SDS011;2300;51.874;8.430;2023-02-28T10:09:11;15.63;;;14.70;;
4575;SDS011;2300;51.874;8.430;2023-02-28T10:11:41;15.90;;;14.70;;
4575;SDS011;2300;51.874;8.430;2023-02-28T10:14:12;15.17;;;14.27;;
4575;SDS011;2300;51.874;8.430;2023-02-28T10:16:41;15.47;;;14.67;;
4575;SDS011;2300;51.874;8.430;2023-02-28T10:19:14;15.57;;;14.57;;
4575;SDS011;2300;51.874;8.430;2023-02-28T10:21:47;16.00;;;15.00;;
4575;SDS011;2300;51.874;8.430;2023-02-28T10:24:22;17.40;;;16.20;;
4575;SDS011;2300;51.874;8.430;2023-02-28T10:26:53;15.60;;;14.60;;
4575;SDS011;2300;51.874;8.430;2023-02-28T10:29:25;17.40;;;16.20;;
4575;SDS011;2300;51.874;8.430;2023-02-28T10:31:52;15.97;;;14.87;;
4575;SDS011;2300;51.874;8.430;2023-02-28T10:34:20;15.53;;;14.47;;
4575;SDS011;2300;51.874;8.430;2023-02-28T10:36:46;16.47;;;15.47;;
4575;SDS011;2300;51.874;8.430;2023-02-28T10:39:34;15.93;;;15.00;;
4575;SDS011;2300;51.874;8.430;2023-02-28T10:42:02;16.50;;;15.47;;
4575;SDS011;2300;51.874;8.430;2023-02-28T10:44:29;15.47;;;14.53;;
4575;SDS011;2300;51.874;8.430;2023-02-28T10:46:56;15.47;;;14.47;;
4575;SDS011;2300;51.874;8.430;2023-02-28T10:49:25;16.93;;;15.83;;
4575;SDS011;2300;51.874;8.430;2023-02-28T10:51:53;16.90;;;15.90;;
4575;SDS011;2300;51.874;8.430;2023-02-28T10:54:23;17.90;;;16.57;;
4575;SDS011;2300;51.874;8.430;2023-02-28T10:57:05;17.50;;;16.40;;
4575;SDS011;2300;51.874;8.430;2023-02-28T10:59:34;17.23;;;15.93;;
4575;SDS011;2300;51.874;8.430;2023-02-28T11:02:01;17.87;;;16.70;;
4575;SDS011;2300;51.874;8.430;2023-02-28T11:04:38;16.67;;;15.57;;
4575;SDS011;2300;51.874;8.430;2023-02-28T11:07:06;16.60;;;15.50;;
4575;SDS011;2300;51.874;8.430;2023-02-28T11:09:44;18.10;;;17.10;;
4575;SDS011;2300;51.874;8.430;2023-02-28T11:12:19;17.43;;;16.23;;
4575;SDS011;2300;51.874;8.430;2023-02-28T11:14:48;18.47;;;17.27;;
4575;SDS011;2300;51.874;8.430;2023-02-28T11:17:19;21.00;;;19.47;;
4575;SDS011;2300;51.874;8.430;2023-02-28T11:19:49;18.43;;;17.13;;
4575;SDS011;2300;51.874;8.430;2023-02-28T11:22:18;17.83;;;16.70;;
4575;SDS011;2300;51.874;8.430;2023-02-28T11:24:47;18.30;;;17.20;;
4575;SDS011;2300;51.874;8.430;2023-02-28T11:30:23;18.30;;;16.97;;
4575;SDS011;2300;51.874;8.430;2023-02-28T11:32:54;17.67;;;16.77;;
4575;SDS011;2300;51.874;8.430;2023-02-28T11:35:23;18.03;;;17.00;;
4575;SDS011;2300;51.874;8.430;2023-02-28T11:37:52;17.80;;;16.60;;
4575;SDS011;2300;51.874;8.430;2023-02-28T11:40:21;18.00;;;16.80;;
4575;SDS011;2300;51.874;8.430;2023-02-28T11:42:57;18.07;;;17.00;;
4575;SDS011;2300;51.874;8.430;2023-02-28T11:45:44;18.63;;;17.63;;
4575;SDS011;2300;51.874;8.430;2023-02-28T11:48:21;18.30;;;17.20;;
4575;SDS011;2300;51.874;8.430;2023-02-28T11:51:03;17.50;;;16.43;;
4575;SDS011;2300;51.874;8.430;2023-02-28T11:53:47;18.50;;;17.30;;
4575;SDS011;2300;51.874;8.430;2023-02-28T11:56:23;17.90;;;16.70;;
4575;SDS011;2300;51.874;8.430;2023-02-28T11:58:59;19.60;;;18.40;;
4575;SDS011;2300;51.874;8.430;2023-02-28T12:01:56;18.30;;;17.17;;
4575;SDS011;2300;51.874;8.430;2023-02-28T12:04:32;18.50;;;17.50;;
4575;SDS011;2300;51.874;8.430;2023-02-28T12:07:13;16.93;;;15.73;;
4575;SDS011;2300;51.874;8.430;2023-02-28T12:09:47;16.70;;;15.70;;
4575;SDS011;2300;51.874;8.430;2023-02-28T12:12:24;16.70;;;15.80;;
4575;SDS011;2300;51.874;8.430;2023-02-28T12:15:05;17.20;;;15.97;;
4575;SDS011;2300;51.874;8.430;2023-02-28T12:17:57;16.70;;;15.70;;
4575;SDS011;2300;51.874;8.430;2023-02-28T12:20:42;17.00;;;15.80;;
4575;SDS011;2300;51.874;8.430;2023-02-28T12:23:24;15.83;;;14.83;;
4575;SDS011;2300;51.874;8.430;2023-02-28T12:26:08;15.90;;;14.60;;
4575;SDS011;2300;51.874;8.430;2023-02-28T12:28:44;19.27;;;18.20;;
4575;SDS011;2300;51.874;8.430;2023-02-28T12:31:15;21.23;;;20.03;;
4575;SDS011;2300;51.874;8.430;2023-02-28T12:33:47;15.77;;;14.73;;
4575;SDS011;2300;51.874;8.430;2023-02-28T12:36:18;15.43;;;14.53;;
4575;SDS011;2300;51.874;8.430;2023-02-28T12:38:50;15.27;;;14.37;;
4575;SDS011;2300;51.874;8.430;2023-02-28T12:41:22;16.20;;;15.30;;
4575;SDS011;2300;51.874;8.430;2023-02-28T12:43:55;14.70;;;13.80;;
4575;SDS011;2300;51.874;8.430;2023-02-28T12:46:27;15.70;;;14.80;;
4575;SDS011;2300;51.874;8.430;2023-02-28T12:48:59;14.83;;;13.93;;
4575;SDS011;2300;51.874;8.430;2023-02-28T12:51:30;17.03;;;15.83;;
4575;SDS011;2300;51.874;8.430;2023-02-28T12:54:02;15.83;;;14.80;;
4575;SDS011;2300;51.874;8.430;2023-02-28T12:56:37;15.07;;;14.07;;
4575;SDS011;2300;51.874;8.430;2023-02-28T12:59:10;16.10;;;15.00;;
4575;SDS011;2300;51.874;8.430;2023-02-28T13:02:00;16.03;;;14.87;;
4575;SDS011;2300;51.874;8.430;2023-02-28T13:04:47;15.20;;;14.30;;
4575;SDS011;2300;51.874;8.430;2023-02-28T13:07:36;15.33;;;14.33;;
4575;SDS011;2300;51.874;8.430;2023-02-28T13:10:17;14.87;;;13.87;;
4575;SDS011;2300;51.874;8.430;2023-02-28T13:12:48;15.43;;;14.43;;
4575;SDS011;2300;51.874;8.430;2023-02-28T13:15:17;15.83;;;14.80;;
4575;SDS011;2300;51.874;8.430;2023-02-28T13:17:49;14.33;;;13.43;;
4575;SDS011;2300;51.874;8.430;2023-02-28T13:20:33;14.00;;;13.20;;
4575;SDS011;2300;51.874;8.430;2023-02-28T13:23:02;15.00;;;14.00;;
4575;SDS011;2300;51.874;8.430;2023-02-28T13:31:31;15.40;;;14.37;;
4575;SDS011;2300;51.874;8.430;2023-02-28T13:36:41;14.70;;;13.80;;
4575;SDS011;2300;51.874;8.430;2023-02-28T13:42:23;15.60;;;14.60;;
4575;SDS011;2300;51.874;8.430;2023-02-28T13:45:19;15.20;;;14.20;;
4575;SDS011;2300;51.874;8.430;2023-02-28T13:47:51;15.90;;;14.90;;
4575;SDS011;2300;51.874;8.430;2023-02-28T13:50:24;17.63;;;16.43;;
4575;SDS011;2300;51.874;8.430;2023-02-28T13:52:57;18.37;;;17.10;;
4575;SDS011;2300;51.874;8.430;2023-02-28T13:55:56;16.10;;;15.10;;
4575;SDS011;2300;51.874;8.430;2023-02-28T13:58:36;15.13;;;14.13;;
4575;SDS011;2300;51.874;8.430;2023-02-28T14:01:29;16.20;;;15.10;;
4575;SDS011;2300;51.874;8.430;2023-02-28T14:04:12;15.17;;;14.27;;
4575;SDS011;2300;51.874;8.430;2023-02-28T14:07:08;16.00;;;14.80;;
4575;SDS011;2300;51.874;8.430;2023-02-28T14:09:45;15.70;;;14.60;;
4575;SDS011;2300;51.874;8.430;2023-02-28T14:15:30;16.27;;;15.27;;
4575;SDS011;2300;51.874;8.430;2023-02-28T14:18:05;16.23;;;15.23;;
4575;SDS011;2300;51.874;8.430;2023-02-28T14:20:39;16.97;;;15.80;;
4575;SDS011;2300;51.874;8.430;2023-02-28T14:23:09;16.03;;;14.97;;
4575;SDS011;2300;51.874;8.430;2023-02-28T14:25:43;16.43;;;15.30;;
4575;SDS011;2300;51.874;8.430;2023-02-28T14:28:20;19.40;;;18.30;;
4575;SDS011;2300;51.874;8.430;2023-02-28T14:31:02;16.20;;;15.00;;
4575;SDS011;2300;51.874;8.430;2023-02-28T14:33:38;16.83;;;15.63;;
4575;SDS011;2300;51.874;8.430;2023-02-28T14:36:14;17.27;;;16.20;;
4575;SDS011;2300;51.874;8.430;2023-02-28T14:38:46;16.30;;;15.40;;
4575;SDS011;2300;51.874;8.430;2023-02-28T14:41:21;16.63;;;15.60;;
4575;SDS011;2300;51.874;8.430;2023-02-28T14:43:53;16.73;;;15.63;;
4575;SDS011;2300;51.874;8.430;2023-02-28T14:46:24;17.20;;;16.20;;
4575;SDS011;2300;51.874;8.430;2023-02-28T14:48:54;17.73;;;16.53;;
4575;SDS011;2300;51.874;8.430;2023-02-28T14:51:21;16.97;;;15.63;;
4575;SDS011;2300;51.874;8.430;2023-02-28T14:53:51;16.47;;;15.30;;
4575;SDS011;2300;51.874;8.430;2023-02-28T14:56:23;15.63;;;14.63;;
4575;SDS011;2300;51.874;8.430;2023-02-28T14:58:53;16.80;;;15.70;;
4575;SDS011;2300;51.874;8.430;2023-02-28T15:01:21;17.00;;;15.90;;
4575;SDS011;2300;51.874;8.430;2023-02-28T15:03:57;18.10;;;16.80;;
4575;SDS011;2300;51.874;8.430;2023-02-28T15:06:26;19.57;;;18.27;;
4575;SDS011;2300;51.874;8.430;2023-02-28T15:09:06;20.20;;;18.80;;
4575;SDS011;2300;51.874;8.430;2023-02-28T15:11:35;19.17;;;17.87;;
4575;SDS011;2300;51.874;8.430;2023-02-28T15:14:03;22.83;;;21.33;;
4575;SDS011;2300;51.874;8.430;2023-02-28T15:16:32;20.20;;;19.00;;
4575;SDS011;2300;51.874;8.430;2023-02-28T15:19:04;22.13;;;20.83;;
4575;SDS011;2300;51.874;8.430;2023-02-28T15:21:34;20.33;;;19.03;;
4575;SDS011;2300;51.874;8.430;2023-02-28T15:24:04;20.23;;;19.03;;
4575;SDS011;2300;51.874;8.430;2023-02-28T15:26:34;19.93;;;18.70;;
4575;SDS011;2300;51.874;8.430;2023-02-28T15:29:04;19.93;;;18.80;;
4575;SDS011;2300;51.874;8.430;2023-02-28T15:31:35;20.63;;;19.37;;
4575;SDS011;2300;51.874;8.430;2023-02-28T15:34:14;20.80;;;19.70;;